ESSAESNQ

Guest
Details From ESSA - Stockholm Arlanda
To ESNQ - Kiruna
Flight Number -
Tags Generated
Created
Modified
Stats Distance 497 nm / 920 km
Max Altitude 0 ft / 0 m
Waypoints 4
Social Downloads 2
Likes 0
Share VATSIM

Download

Looking for another format? Having issues loading an existing format? Contact us
Advertisement - Login to hide

Notes

Generated

Route

ESSA OD KRA ESNQ

ID Type Via Altitude Latitude Longitude Leg Dist Tot Dist Heading (true) Name
O ESSA APT - 0 ft / 0 m 59.62640˚ 17.95074˚ - 0 nm - -
OD NDB - 0 ft / 0 m 63.43703˚ 18.88711˚ 230 nm 230 nm 6° / 7° Ornskoldsvik NDB
KRA VOR - 0 ft / 0 m 67.81922˚ 20.33750˚ 265 nm 496 nm 7° / 8° KIRUNA VOR-DME
O ESNQ APT - 0 ft / 0 m 67.81265˚ 20.32031˚ 0 nm 496 nm 225° / 225° -

Altitude Profile

Advertisement - Login to hide

Weather


0- 5 10 15 20 25 30 35+ Temperature / ° C

Clouds and Precipitation
Forecast for 2017-12-12 00:00 UTC. Updated a few seconds ago

Ground ~20,000 ft ~40,000 ft Winds

ESSA

Details ICAO ESSA (ARN)
Name Stockholm Arlanda
Region Sweden
Timezone Europe/Stockholm (UTC+1.0)
Stats Elevation 137 ft / 42 m (AMSL)
Location 59.650140° 17.943628°
Runways 3
Magnetic Variation 6.100° E

METAR

ESSA 112120Z 04007KT 9999 BKN038 M00/M01 Q0994 R01L/510275 R01R/SNOCLO R08/510273 TEMPO 2500 SHSN

Decode

TAF

TAF ESSA 111730Z 1118/1218 05007KT 8000 -SN FEW004 BKN030 PROB40 1118/1123 2000 SHSN BKN004 BKN020CB BECMG 1123/1201 4000 -SN BKN010 TEMPO 1201/1214 0400 SN VV006 BECMG 1210/1212 35010KT BECMG 1214/1216 9999 SCT020

Decode

Departure Runways

ID Width Length Bearing (true) Bearing (mag) Surface Threshold Offset Overrun Length
01L 148 ft / 45 m 10,812 ft / 3,296 m 10.35° 4.25° Concrete 0 ft / 0 m 0 ft / 0 m
01R 148 ft / 45 m 8,188 ft / 2,496 m 10.38° 4.28° Asphalt 0 ft / 0 m 0 ft / 0 m
08 148 ft / 45 m 8,178 ft / 2,493 m 75.83° 69.73° Concrete 0 ft / 0 m 0 ft / 0 m
19L 148 ft / 45 m 8,188 ft / 2,496 m 190.39° 184.29° Asphalt 0 ft / 0 m 0 ft / 0 m
19R 148 ft / 45 m 10,812 ft / 3,296 m 190.36° 184.26° Concrete 0 ft / 0 m 0 ft / 0 m
26 148 ft / 45 m 8,178 ft / 2,493 m 255.87° 249.77° Concrete 0 ft / 0 m 0 ft / 0 m

ESNQ

Details ICAO ESNQ (KRN)
Name Kiruna
Region Sweden
Timezone Europe/Stockholm (UTC+1.0)
Stats Elevation 1,508 ft / 460 m (AMSL)
Location 67.821984° 20.336762°
Runways 1
Magnetic Variation 9.071° E

METAR

ESNQ 112120Z 18005KT 9999 FEW009 SCT039 M05/M06 Q0998

Decode

TAF

Not found

Destination Runways

ID Width Length Bearing (true) Bearing (mag) Surface Threshold Offset Overrun Length
03 148 ft / 45 m 8,183 ft / 2,494 m 33.63° 24.56° Asphalt 0 ft / 0 m 200 ft / 61 m
21 148 ft / 45 m 8,183 ft / 2,494 m 213.66° 204.59° Asphalt 0 ft / 0 m 200 ft / 61 m

Approach Navaids

Runway Type Ident Frequency Range Bearing (true) Bearing (mag) Slope Elevation
21 Localiser NQ 110.30 MHz 18 nm / 33 km 213.64° 204.57° - 1,508 ft / 460 m (AMSL)
21 Glidescope NQ 110.30 MHz 10 nm / 19 km 213.64° 204.57° 2.86° 1,508 ft / 460 m (AMSL)

Popular Alternatives